Time;durP1;ratioP1;P1;durP2;ratioP2;P2;SDS_P1;SDS_P2;PMS_P1;PMS_P2;Temp;Humidity;BMP_temperature;BMP_pressure;BME280_temperature;BME280_humidity;BME280_pressure;Samples;Min_cycle;Max_cycle;Signal;HPM_P1;HPM_P2
2022/03/03 00:01:51;;;;;;;68.82;28.80;;;5.00;99.90;;;;;;4870393;29;20040;-94
2022/03/03 00:04:17;;;;;;;62.70;27.60;;;5.00;99.90;;;;;;4868897;29;20086;-93
2022/03/03 00:06:42;;;;;;;61.65;28.13;;;5.00;99.90;;;;;;4869491;29;20085;-93
2022/03/03 00:09:08;;;;;;;61.10;27.45;;;4.90;99.90;;;;;;4867973;29;20085;-93
2022/03/03 00:11:34;;;;;;;61.78;27.10;;;4.90;99.90;;;;;;4870759;29;20064;-93
2022/03/03 00:14:00;;;;;;;66.05;29.95;;;5.00;99.90;;;;;;4869410;29;20021;-92
2022/03/03 00:16:26;;;;;;;66.18;29.08;;;5.00;99.90;;;;;;4868376;29;20029;-92
2022/03/03 00:18:52;;;;;;;61.58;28.55;;;4.90;99.90;;;;;;4868894;29;20029;-92
2022/03/03 00:21:18;;;;;;;64.32;28.30;;;4.90;99.90;;;;;;4867930;29;20064;-93
2022/03/03 00:23:44;;;;;;;64.47;27.85;;;4.90;99.90;;;;;;4869626;29;20045;-92
2022/03/03 00:26:10;;;;;;;60.95;26.77;;;4.90;99.90;;;;;;4871258;29;20036;-91
2022/03/03 00:28:36;;;;;;;58.95;26.60;;;4.90;99.90;;;;;;4860471;29;20373;-92
2022/03/03 00:31:02;;;;;;;66.50;28.80;;;4.90;99.90;;;;;;4860491;29;20128;-92
2022/03/03 00:33:28;;;;;;;62.30;28.08;;;4.90;99.90;;;;;;4860745;29;20036;-93
2022/03/03 00:35:54;;;;;;;60.53;25.52;;;4.90;99.90;;;;;;4861067;29;20034;-92
2022/03/03 00:38:19;;;;;;;62.10;26.67;;;4.90;99.90;;;;;;4860751;29;20021;-92
2022/03/03 00:40:45;;;;;;;68.55;28.73;;;4.90;99.90;;;;;;4860925;29;20116;-92
2022/03/03 00:43:12;;;;;;;59.30;25.02;;;4.90;99.90;;;;;;4860704;29;20033;-93
2022/03/03 00:45:38;;;;;;;63.22;27.15;;;4.90;99.90;;;;;;4860663;29;20033;-92
2022/03/03 00:48:04;;;;;;;62.70;28.30;;;4.90;99.90;;;;;;4861022;29;20030;-94
2022/03/03 00:50:30;;;;;;;67.65;28.50;;;4.90;99.90;;;;;;4860526;29;20037;-94
2022/03/03 00:52:58;;;;;;;68.65;27.33;;;4.90;99.90;;;;;;4860683;29;20421;-93
2022/03/03 00:55:27;;;;;;;67.25;29.48;;;4.90;99.90;;;;;;4860342;29;20526;-91
2022/03/03 00:57:53;;;;;;;62.20;28.85;;;4.90;99.90;;;;;;4860791;29;20094;-93
2022/03/03 01:00:18;;;;;;;71.00;28.17;;;4.90;99.90;;;;;;4860842;29;20025;-93
2022/03/03 01:02:49;;;;;;;64.72;29.13;;;4.90;99.90;;;;;;4861680;29;20441;-92
2022/03/03 01:05:15;;;;;;;69.97;29.52;;;4.80;99.90;;;;;;4865956;29;20085;-92
2022/03/03 01:07:41;;;;;;;72.32;32.05;;;4.80;99.90;;;;;;4860891;29;20040;-92
2022/03/03 01:10:08;;;;;;;73.20;32.25;;;4.90;99.90;;;;;;4860341;29;20049;-92
2022/03/03 01:12:34;;;;;;;77.03;31.50;;;4.80;99.90;;;;;;4861718;29;20045;-92
2022/03/03 01:15:00;;;;;;;69.32;30.85;;;4.80;99.90;;;;;;4863846;29;20093;-92
2022/03/03 01:17:26;;;;;;;73.00;30.60;;;4.80;99.90;;;;;;4863712;29;20499;-92
2022/03/03 01:19:52;;;;;;;81.50;35.17;;;4.80;99.90;;;;;;4864055;29;20128;-92
2022/03/03 01:22:18;;;;;;;78.55;34.38;;;4.80;99.90;;;;;;4864126;29;20058;-92
2022/03/03 01:24:45;;;;;;;80.43;34.75;;;4.80;99.90;;;;;;4863775;29;20037;-92
2022/03/03 01:27:12;;;;;;;85.28;35.60;;;4.80;99.90;;;;;;4865010;29;20033;-93
2022/03/03 01:29:38;;;;;;;83.82;35.65;;;4.80;99.90;;;;;;4864808;29;20034;-93
2022/03/03 01:32:05;;;;;;;82.57;33.42;;;4.80;99.90;;;;;;4864989;29;20101;-94
2022/03/03 01:34:31;;;;;;;87.05;36.65;;;4.80;99.90;;;;;;4863918;29;20037;-92
2022/03/03 01:36:56;;;;;;;91.35;37.88;;;4.80;99.90;;;;;;4863528;29;20037;-91
2022/03/03 01:39:22;;;;;;;80.15;36.80;;;4.80;99.90;;;;;;4863280;29;20476;-92
2022/03/03 01:41:48;;;;;;;90.47;38.65;;;4.90;99.90;;;;;;4863558;29;20030;-92
2022/03/03 01:44:14;;;;;;;85.07;38.65;;;4.90;99.90;;;;;;4863579;29;20064;-92
2022/03/03 01:46:58;;;;;;;88.20;38.00;;;5.00;99.90;;;;;;4864301;29;20134;-92
2022/03/03 01:49:25;;;;;;;93.25;39.60;;;5.00;99.90;;;;;;4864844;29;20049;-91
2022/03/03 01:51:52;;;;;;;90.95;39.78;;;5.00;99.90;;;;;;4863795;29;20049;-93
2022/03/03 01:54:18;;;;;;;94.60;40.58;;;5.00;99.90;;;;;;4863797;29;20140;-93
2022/03/03 01:56:46;;;;;;;102.45;41.38;;;5.00;99.90;;;;;;4864539;29;20125;-94
2022/03/03 01:59:12;;;;;;;86.78;40.22;;;5.10;99.90;;;;;;4863915;29;20037;-94
2022/03/03 02:01:39;;;;;;;92.90;40.15;;;5.20;99.90;;;;;;4863364;29;20104;-92
2022/03/03 02:04:07;;;;;;;91.47;38.97;;;5.20;99.90;;;;;;4863035;29;20092;-93
2022/03/03 02:06:34;;;;;;;96.70;41.38;;;5.20;99.90;;;;;;4863371;29;20049;-92
2022/03/03 02:09:00;;;;;;;95.10;41.08;;;5.20;99.90;;;;;;4863116;29;20037;-92
2022/03/03 02:11:26;;;;;;;91.00;39.80;;;5.20;99.90;;;;;;4863163;29;20098;-93
2022/03/03 02:13:52;;;;;;;90.10;42.20;;;5.20;99.90;;;;;;4863078;29;20064;-92
2022/03/03 02:16:18;;;;;;;99.55;42.65;;;5.20;99.90;;;;;;4863005;29;20038;-93
2022/03/03 02:18:45;;;;;;;91.22;40.35;;;5.20;99.90;;;;;;4863297;29;20034;-95
2022/03/03 02:21:12;;;;;;;96.47;42.20;;;5.20;99.90;;;;;;4863044;29;20029;-92
2022/03/03 02:23:38;;;;;;;102.70;41.08;;;5.20;99.90;;;;;;4862702;29;20021;-92
2022/03/03 02:26:06;;;;;;;97.15;40.35;;;5.10;99.90;;;;;;4863295;29;20033;-93
2022/03/03 02:28:33;;;;;;;102.40;42.35;;;5.10;99.90;;;;;;4863718;29;20021;-94
2022/03/03 02:35:57;;;;;;;99.85;42.95;;;5.10;99.90;;;;;;4846911;29;20034;-93
2022/03/03 02:38:23;;;;;;;98.13;41.90;;;5.10;99.90;;;;;;4862699;29;20033;-90
2022/03/03 02:40:48;;;;;;;99.53;42.08;;;5.00;99.90;;;;;;4862645;29;20077;-92
2022/03/03 02:43:14;;;;;;;97.18;42.70;;;5.10;99.90;;;;;;4862334;29;20029;-92
2022/03/03 02:45:40;;;;;;;106.30;44.63;;;5.10;99.90;;;;;;4863657;29;20021;-92
2022/03/03 02:48:05;;;;;;;99.18;43.08;;;5.00;99.90;;;;;;4863931;29;20031;-90
2022/03/03 02:50:31;;;;;;;104.68;42.60;;;5.00;99.90;;;;;;4866837;29;20044;-92
2022/03/03 02:53:01;;;;;;;112.93;46.20;;;5.00;99.90;;;;;;4867029;29;20034;-93
2022/03/03 02:55:28;;;;;;;104.00;43.10;;;5.00;99.90;;;;;;4882349;29;20110;-93
2022/03/03 02:57:53;;;;;;;104.10;44.08;;;5.00;99.90;;;;;;4884391;29;20106;-91
2022/03/03 03:00:21;;;;;;;112.00;45.20;;;5.00;99.90;;;;;;4869305;29;20021;-91
2022/03/03 03:02:47;;;;;;;106.82;43.92;;;5.00;99.90;;;;;;4883601;29;20038;-93
2022/03/03 03:05:13;;;;;;;113.15;47.25;;;4.90;99.90;;;;;;4874700;29;20025;-93
2022/03/03 03:07:41;;;;;;;116.10;47.00;;;4.90;99.90;;;;;;4874358;29;20030;-93
2022/03/03 03:10:07;;;;;;;118.03;46.83;;;4.90;99.90;;;;;;4864682;29;20030;-93
2022/03/03 03:12:33;;;;;;;116.25;46.78;;;4.90;99.90;;;;;;4864316;29;20042;-91
2022/03/03 03:14:59;;;;;;;109.70;46.95;;;4.90;99.90;;;;;;4864214;29;20037;-91
2022/03/03 03:17:25;;;;;;;116.25;46.70;;;4.90;99.90;;;;;;4864317;29;20041;-92
2022/03/03 03:19:50;;;;;;;115.70;47.47;;;4.90;99.90;;;;;;4872502;29;20034;-93
2022/03/03 03:22:16;;;;;;;122.93;47.47;;;4.90;99.90;;;;;;4866120;29;20021;-92
2022/03/03 03:24:42;;;;;;;119.93;46.55;;;4.90;99.90;;;;;;4862702;29;20033;-91
2022/03/03 03:27:08;;;;;;;114.47;46.85;;;4.90;99.90;;;;;;4866633;29;20142;-92
2022/03/03 03:29:34;;;;;;;125.75;49.08;;;4.90;99.90;;;;;;4871935;29;20068;-94
2022/03/03 03:31:59;;;;;;;116.35;47.25;;;4.90;99.90;;;;;;4866796;29;20030;-93
2022/03/03 03:34:25;;;;;;;112.80;44.17;;;4.90;99.90;;;;;;4861536;29;20041;-92
2022/03/03 03:36:52;;;;;;;127.88;48.75;;;4.90;99.90;;;;;;4861047;29;20532;-92
2022/03/03 03:39:17;;;;;;;130.85;49.22;;;4.90;99.90;;;;;;4861445;29;20025;-92
2022/03/03 03:41:43;;;;;;;120.72;49.95;;;4.90;99.90;;;;;;4861666;29;20474;-93
2022/03/03 03:44:10;;;;;;;105.90;45.53;;;4.90;99.90;;;;;;4861204;29;20061;-93
2022/03/03 03:46:36;;;;;;;119.22;49.00;;;4.90;99.90;;;;;;4860877;29;20026;-92
2022/03/03 03:49:02;;;;;;;106.88;44.92;;;4.90;99.90;;;;;;4863804;29;20037;-92
2022/03/03 03:51:28;;;;;;;117.72;49.85;;;4.90;99.90;;;;;;4862097;29;20620;-92
2022/03/03 03:53:53;;;;;;;110.72;46.30;;;5.00;99.90;;;;;;4860771;29;20085;-92
2022/03/03 03:56:19;;;;;;;113.88;47.65;;;5.00;99.90;;;;;;4860878;29;20148;-92
2022/03/03 03:58:45;;;;;;;110.40;46.03;;;5.00;99.90;;;;;;4861196;29;20037;-92
2022/03/03 04:01:11;;;;;;;118.53;48.42;;;5.00;99.90;;;;;;4861095;29;20492;-91
2022/03/03 04:03:36;;;;;;;128.38;50.60;;;5.00;99.90;;;;;;4874652;29;20029;-93
2022/03/03 04:06:02;;;;;;;127.78;50.47;;;5.00;99.90;;;;;;4871174;29;20436;-92
2022/03/03 04:08:28;;;;;;;111.97;47.47;;;5.00;99.90;;;;;;4870286;29;20041;-92
2022/03/03 04:10:54;;;;;;;122.10;50.50;;;5.00;99.90;;;;;;4867120;29;20072;-92
2022/03/03 04:13:21;;;;;;;103.72;44.28;;;5.00;99.90;;;;;;4878957;29;20033;-92
2022/03/03 04:15:46;;;;;;;111.53;45.72;;;5.00;99.90;;;;;;4878979;29;20025;-91
2022/03/03 04:18:12;;;;;;;120.70;50.20;;;5.00;99.90;;;;;;4879008;29;20022;-91
2022/03/03 04:20:38;;;;;;;112.00;47.45;;;5.10;99.90;;;;;;4878917;29;20092;-92
2022/03/03 04:23:04;;;;;;;119.95;50.75;;;5.00;99.90;;;;;;4879335;29;20036;-91
2022/03/03 04:25:29;;;;;;;117.57;50.33;;;5.10;99.90;;;;;;4879018;29;20040;-92
2022/03/03 04:27:55;;;;;;;101.05;44.13;;;5.10;99.90;;;;;;4883166;29;20064;-91
2022/03/03 04:30:21;;;;;;;117.03;49.45;;;5.00;99.90;;;;;;4886578;29;20109;-94
2022/03/03 04:32:46;;;;;;;115.63;47.10;;;5.10;99.90;;;;;;4881975;29;20040;-92
2022/03/03 04:35:12;;;;;;;104.85;45.03;;;5.00;99.90;;;;;;4878998;29;20036;-91
2022/03/03 04:37:40;;;;;;;93.00;41.63;;;5.10;99.90;;;;;;4879023;29;20060;-91
2022/03/03 04:40:07;;;;;;;113.53;48.13;;;5.10;99.90;;;;;;4878995;29;20037;-92
2022/03/03 04:42:32;;;;;;;119.07;49.25;;;5.10;99.90;;;;;;4879667;29;20028;-92
2022/03/03 04:44:58;;;;;;;113.25;46.95;;;5.10;99.90;;;;;;4884783;29;20033;-92
2022/03/03 04:47:24;;;;;;;114.75;48.75;;;5.00;99.90;;;;;;4889051;29;20025;-91
2022/03/03 04:49:50;;;;;;;112.75;48.08;;;5.10;99.90;;;;;;4884701;29;20113;-92
2022/03/03 04:52:15;;;;;;;114.03;48.58;;;5.10;99.90;;;;;;4882150;29;20507;-91
2022/03/03 04:54:42;;;;;;;124.43;51.65;;;5.10;99.90;;;;;;4881925;29;20059;-92
2022/03/03 04:57:07;;;;;;;126.43;51.63;;;5.10;99.90;;;;;;4881076;29;20061;-92
2022/03/03 04:59:33;;;;;;;123.15;50.80;;;5.10;99.90;;;;;;4882201;29;20116;-93
2022/03/03 05:01:59;;;;;;;124.90;52.85;;;5.10;99.90;;;;;;4881801;29;20085;-92
2022/03/03 05:04:25;;;;;;;115.95;50.55;;;5.10;99.90;;;;;;4882182;29;20053;-92
2022/03/03 05:06:51;;;;;;;94.85;42.58;;;5.10;99.90;;;;;;4882619;29;20037;-93
2022/03/03 05:09:16;;;;;;;118.85;52.55;;;5.10;99.90;;;;;;4882333;29;20506;-91
2022/03/03 05:11:43;;;;;;;115.10;51.30;;;5.10;99.90;;;;;;4882133;29;20050;-91
2022/03/03 05:14:08;;;;;;;120.43;49.05;;;5.10;99.90;;;;;;4882053;29;20037;-92
2022/03/03 05:16:34;;;;;;;103.95;46.40;;;5.10;99.90;;;;;;4882235;29;20037;-91
2022/03/03 05:19:00;;;;;;;115.10;52.03;;;5.10;99.90;;;;;;4882207;29;20029;-92
2022/03/03 05:21:26;;;;;;;119.60;52.65;;;5.10;99.90;;;;;;4881767;29;20078;-92
2022/03/03 05:23:53;;;;;;;115.78;50.63;;;5.10;99.90;;;;;;4881734;29;20056;-92
2022/03/03 05:26:19;;;;;;;118.45;51.33;;;5.10;99.90;;;;;;4882513;29;20068;-91
2022/03/03 05:28:44;;;;;;;115.22;50.53;;;5.10;99.90;;;;;;4881823;29;20033;-92
2022/03/03 05:31:10;;;;;;;125.75;51.67;;;5.10;99.90;;;;;;4881301;29;20063;-93
2022/03/03 05:33:36;;;;;;;119.43;51.60;;;5.10;99.90;;;;;;4881864;29;20029;-92
2022/03/03 05:36:08;;;;;;;114.45;49.70;;;5.10;99.90;;;;;;4881868;29;20048;-93
2022/03/03 05:38:34;;;;;;;118.47;50.28;;;5.10;99.90;;;;;;4881516;29;20025;-91
2022/03/03 05:41:01;;;;;;;117.00;49.58;;;5.10;99.90;;;;;;4881537;29;20056;-92
2022/03/03 05:43:27;;;;;;;120.22;50.20;;;5.10;99.90;;;;;;4881361;29;20368;-92
2022/03/03 05:45:54;;;;;;;126.20;52.30;;;5.10;99.90;;;;;;4881296;29;20096;-92
2022/03/03 05:48:22;;;;;;;118.65;52.53;;;5.10;99.90;;;;;;4881520;29;20061;-91
2022/03/03 05:50:49;;;;;;;126.75;53.70;;;5.20;99.90;;;;;;4880915;29;20124;-93
2022/03/03 05:53:16;;;;;;;115.97;50.55;;;5.10;99.90;;;;;;4881414;29;20026;-92
2022/03/03 05:55:49;;;;;;;119.22;50.83;;;5.10;99.90;;;;;;4881583;29;20056;-91
2022/03/03 05:58:18;;;;;;;120.32;54.72;;;5.20;99.90;;;;;;4880942;29;20395;-92
2022/03/03 06:00:49;;;;;;;117.80;53.45;;;5.10;99.90;;;;;;4881970;29;20126;-91
2022/03/03 06:03:17;;;;;;;121.05;52.70;;;5.10;99.90;;;;;;4882658;29;20036;-93
2022/03/03 06:05:58;;;;;;;115.45;49.50;;;5.10;99.90;;;;;;4881844;29;20391;-92
2022/03/03 06:08:30;;;;;;;122.80;53.15;;;5.10;99.90;;;;;;4881818;29;20116;-92
2022/03/03 06:11:01;;;;;;;124.50;52.40;;;5.10;99.90;;;;;;4881100;29;20047;-92
2022/03/03 06:13:28;;;;;;;;;;;5.20;99.90;;;;;;4881644;29;20025;-92
2022/03/03 06:15:54;;;;;;;117.97;49.97;;;5.20;99.90;;;;;;4881079;29;19912;-91
2022/03/03 06:18:28;;;;;;;123.38;51.38;;;5.20;99.90;;;;;;4880924;29;20037;-91
2022/03/03 06:20:54;;;;;;;118.20;50.97;;;5.10;99.90;;;;;;4881428;29;20033;-92
2022/03/03 06:23:20;;;;;;;130.88;52.55;;;5.20;99.90;;;;;;4881552;29;20035;-92
2022/03/03 06:26:07;;;;;;;106.50;46.00;;;5.20;99.90;;;;;;4882404;29;20025;-91
2022/03/03 06:28:34;;;;;;;112.15;49.45;;;5.20;99.90;;;;;;4890264;29;20036;-91
2022/03/03 06:31:00;;;;;;;125.40;53.05;;;5.20;99.90;;;;;;4903198;29;20064;-92
2022/03/03 06:33:26;;;;;;;119.60;51.35;;;5.20;99.90;;;;;;4903271;29;20033;-91
2022/03/03 06:35:52;;;;;;;121.85;52.97;;;5.20;99.90;;;;;;4893292;29;20038;-92
2022/03/03 06:38:18;;;;;;;104.60;46.72;;;5.30;99.90;;;;;;4893240;29;20021;-92
2022/03/03 06:40:44;;;;;;;122.43;53.28;;;5.20;99.90;;;;;;4882446;29;20129;-90
2022/03/03 06:43:10;;;;;;;129.35;54.22;;;5.20;99.90;;;;;;4883407;29;20034;-92
2022/03/03 06:45:36;;;;;;;123.45;54.10;;;5.20;99.90;;;;;;4876786;29;20047;-90
2022/03/03 06:48:04;;;;;;;125.15;56.25;;;5.30;99.90;;;;;;4872180;29;20475;-92
2022/03/03 06:50:33;;;;;;;120.15;53.08;;;5.20;99.90;;;;;;4872493;29;20021;-90
2022/03/03 06:53:01;;;;;;;131.38;55.30;;;5.20;99.90;;;;;;4869564;29;20485;-91
2022/03/03 06:55:27;;;;;;;133.48;57.33;;;5.20;99.90;;;;;;4871554;29;20377;-92
2022/03/03 06:57:56;;;;;;;130.95;55.42;;;5.20;99.90;;;;;;4870569;29;20050;-90
2022/03/03 07:00:28;;;;;;;131.13;54.47;;;5.20;99.90;;;;;;4868911;29;20037;-91
2022/03/03 07:02:54;;;;;;;142.20;57.95;;;5.20;99.90;;;;;;4871859;29;20064;-91
2022/03/03 07:05:21;;;;;;;138.57;57.78;;;5.20;99.90;;;;;;4869881;29;20053;-92
2022/03/03 07:07:49;;;;;;;128.38;55.33;;;5.20;99.90;;;;;;4864136;29;20033;-90
2022/03/03 07:10:25;;;;;;;133.18;54.28;;;5.20;99.90;;;;;;4872782;29;20037;-90
2022/03/03 07:12:56;;;;;;;136.43;56.08;;;5.20;99.90;;;;;;4850269;29;20069;-91
2022/03/03 07:15:23;;;;;;;;;;;5.20;99.90;;;;;;4871388;29;20032;-90
2022/03/03 07:17:57;;;;;;;130.73;54.72;;;5.20;99.90;;;;;;4873474;29;19912;-90
2022/03/03 07:20:59;;;;;;;129.38;53.88;;;5.20;99.90;;;;;;4871948;29;20506;-90
2022/03/03 07:23:30;;;;;;;133.02;55.97;;;5.30;99.90;;;;;;4871912;29;20018;-90
2022/03/03 07:25:58;;;;;;;;;;;5.30;99.90;;;;;;4871825;29;20490;-90
2022/03/03 07:28:28;;;;;;;134.07;53.65;;;5.30;99.90;;;;;;4886612;29;19993;-90
2022/03/03 07:30:55;;;;;;;125.57;55.17;;;5.30;99.90;;;;;;4876254;29;20045;-89
2022/03/03 07:34:01;;;;;;;126.18;54.30;;;5.30;99.90;;;;;;4869067;29;20030;-91
2022/03/03 07:36:40;;;;;;;122.40;51.78;;;5.30;99.90;;;;;;4872804;29;20044;-90
2022/03/03 07:39:12;;;;;;;127.72;54.60;;;5.30;99.90;;;;;;4874525;29;20025;-91
2022/03/03 07:41:41;;;;;;;125.93;56.15;;;5.30;99.90;;;;;;4884316;29;20029;-91
2022/03/03 07:44:06;;;;;;;144.18;58.58;;;5.30;99.90;;;;;;4886004;29;20041;-90
2022/03/03 07:46:32;;;;;;;133.18;56.17;;;5.30;99.90;;;;;;4894999;29;20021;-90
2022/03/03 07:49:00;;;;;;;137.35;56.42;;;5.40;99.90;;;;;;4899033;29;20464;-90
2022/03/03 07:51:26;;;;;;;133.15;54.30;;;5.40;99.90;;;;;;4895190;29;20492;-90
2022/03/03 07:53:52;;;;;;;124.00;55.00;;;5.30;99.90;;;;;;4883823;29;20040;-91
2022/03/03 07:56:31;;;;;;;127.82;54.15;;;5.40;99.90;;;;;;4878786;29;20575;-91
2022/03/03 07:59:10;;;;;;;137.35;57.20;;;5.40;99.90;;;;;;4859704;29;20032;-91
2022/03/03 08:01:38;;;;;;;142.70;58.67;;;5.40;99.90;;;;;;4865715;29;20530;-92
2022/03/03 08:04:04;;;;;;;126.88;56.00;;;5.40;99.90;;;;;;4868435;29;20065;-90
2022/03/03 08:06:32;;;;;;;139.80;58.45;;;5.40;99.90;;;;;;4866637;29;20055;-92
2022/03/03 08:08:59;;;;;;;137.13;58.88;;;5.50;99.90;;;;;;4864337;29;20029;-92
2022/03/03 08:11:27;;;;;;;136.40;56.40;;;5.50;99.90;;;;;;4872184;29;20120;-91
2022/03/03 08:13:57;;;;;;;128.75;55.00;;;5.50;99.90;;;;;;4877790;29;20029;-90
2022/03/03 08:16:23;;;;;;;136.93;57.40;;;5.50;99.90;;;;;;4872021;29;20033;-91
2022/03/03 08:18:49;;;;;;;133.18;56.90;;;5.50;99.90;;;;;;4865870;29;20033;-90
2022/03/03 08:21:17;;;;;;;130.77;57.72;;;5.60;99.90;;;;;;4866714;29;20045;-92
2022/03/03 08:23:43;;;;;;;137.07;58.30;;;5.60;99.90;;;;;;4868080;29;20084;-91
2022/03/03 08:26:12;;;;;;;144.65;60.72;;;5.60;99.90;;;;;;4873549;29;20041;-91
2022/03/03 08:28:39;;;;;;;140.32;58.78;;;5.60;99.90;;;;;;4881839;29;20051;-91
2022/03/03 08:31:07;;;;;;;137.52;61.28;;;5.60;99.90;;;;;;4868437;29;20049;-90
2022/03/03 08:33:41;;;;;;;136.88;60.45;;;5.70;99.90;;;;;;4871790;29;20022;-91
2022/03/03 08:36:32;;;;;;;132.55;56.40;;;5.70;99.90;;;;;;4871403;29;20036;-91
2022/03/03 08:39:04;;;;;;;143.48;59.05;;;5.70;99.90;;;;;;4873989;29;20408;-90
2022/03/03 08:41:35;;;;;;;133.55;58.30;;;5.70;99.90;;;;;;4872715;29;20033;-91
2022/03/03 08:44:03;;;;;;;133.68;58.10;;;5.70;99.90;;;;;;4880521;29;20061;-91
2022/03/03 08:46:32;;;;;;;122.10;56.00;;;5.80;99.90;;;;;;4875102;29;20025;-91
2022/03/03 08:49:00;;;;;;;123.82;54.28;;;5.80;99.90;;;;;;4874317;29;20129;-91
2022/03/03 08:53:52;;;;;;;126.65;56.00;;;5.90;99.90;;;;;;4847886;29;20169;-91
2022/03/03 08:56:17;;;;;;;119.47;52.60;;;5.90;99.90;;;;;;4863636;29;20518;-91
2022/03/03 08:58:43;;;;;;;129.82;54.85;;;6.00;99.90;;;;;;4872998;29;20029;-91
2022/03/03 09:01:09;;;;;;;124.25;53.88;;;6.00;99.90;;;;;;4881285;29;20033;-90
2022/03/03 09:03:35;;;;;;;122.97;55.25;;;6.00;99.90;;;;;;4878901;29;20033;-92
2022/03/03 09:06:01;;;;;;;116.00;55.10;;;6.00;99.90;;;;;;4871260;29;20049;-90
2022/03/03 09:08:27;;;;;;;128.13;56.83;;;6.10;99.90;;;;;;4873478;29;20064;-92
2022/03/03 09:10:52;;;;;;;125.35;56.10;;;6.10;99.90;;;;;;4870433;29;20052;-90
2022/03/03 09:13:18;;;;;;;128.05;55.17;;;6.10;99.90;;;;;;4871124;29;20021;-92
2022/03/03 09:15:45;;;;;;;116.35;52.95;;;6.10;99.90;;;;;;4871897;29;20084;-90
2022/03/03 09:18:13;;;;;;;131.48;57.97;;;6.10;99.90;;;;;;4871599;29;20044;-91
2022/03/03 09:20:39;;;;;;;124.22;56.03;;;6.20;99.90;;;;;;4870521;29;20025;-91
2022/03/03 09:23:05;;;;;;;121.30;55.55;;;6.20;99.90;;;;;;4871264;29;20369;-92
2022/03/03 09:25:36;;;;;;;121.28;55.70;;;6.20;99.90;;;;;;4871268;29;20052;-93
2022/03/03 09:28:05;;;;;;;107.50;52.05;;;6.30;99.90;;;;;;4870719;29;20081;-93
2022/03/03 09:30:32;;;;;;;121.40;56.38;;;6.30;99.90;;;;;;4868914;29;20109;-93
2022/03/03 09:32:58;;;;;;;120.22;53.35;;;6.30;99.90;;;;;;4876315;29;20730;-94
2022/03/03 09:35:25;;;;;;;113.28;54.17;;;6.40;99.90;;;;;;4878215;29;20025;-94
2022/03/03 09:37:51;;;;;;;121.72;54.60;;;6.40;99.90;;;;;;4883348;29;20048;-93
2022/03/03 09:40:17;;;;;;;116.70;55.83;;;6.50;99.90;;;;;;4871562;29;20026;-93
2022/03/03 09:45:10;;;;;;;115.32;50.78;;;6.50;99.90;;;;;;4848549;29;20061;-94
2022/03/03 09:47:38;;;;;;;105.75;49.78;;;6.60;99.90;;;;;;4865187;29;20059;-92
2022/03/03 09:50:08;;;;;;;102.25;50.20;;;6.60;99.90;;;;;;4884111;29;20032;-92
2022/03/03 09:52:33;;;;;;;117.17;50.70;;;6.60;99.90;;;;;;4885204;29;20021;-93
2022/03/03 09:54:59;;;;;;;109.95;50.70;;;6.70;99.90;;;;;;4894363;29;20077;-93
2022/03/03 09:57:28;;;;;;;110.95;50.75;;;6.70;99.90;;;;;;4899225;29;20044;-93
2022/03/03 09:59:54;;;;;;;105.75;49.45;;;6.70;99.90;;;;;;4881693;29;20267;-92
2022/03/03 10:02:20;;;;;;;109.88;53.88;;;6.80;99.90;;;;;;4875811;29;20017;-93
2022/03/03 10:04:46;;;;;;;105.90;49.92;;;6.80;99.90;;;;;;4873454;29;20081;-93
2022/03/03 10:07:13;;;;;;;111.38;51.25;;;6.80;99.90;;;;;;4874642;29;20057;-93
2022/03/03 10:12:27;;;;;;;104.13;48.03;;;6.80;99.90;;;;;;4871000;29;20110;-92
2022/03/03 10:14:58;;;;;;;107.00;51.10;;;6.80;99.90;;;;;;4877765;29;20025;-91
2022/03/03 10:17:37;;;;;;;118.45;52.38;;;6.80;99.90;;;;;;4883626;29;20033;-90
2022/03/03 10:20:05;;;;;;;108.95;52.28;;;6.80;99.90;;;;;;4883329;29;20033;-92
2022/03/03 10:22:47;;;;;;;115.65;52.85;;;6.80;99.90;;;;;;4872386;29;20077;-91
2022/03/03 10:25:26;;;;;;;112.30;51.80;;;6.80;99.90;;;;;;4871532;29;20025;-92
2022/03/03 10:27:51;;;;;;;108.47;50.70;;;6.80;99.90;;;;;;4871052;29;20021;-91
2022/03/03 10:30:17;;;;;;;109.57;51.80;;;6.80;99.90;;;;;;4870505;29;20126;-92
2022/03/03 10:32:43;;;;;;;114.20;53.30;;;6.80;99.90;;;;;;4873008;29;20025;-94
2022/03/03 10:35:18;;;;;;;113.13;52.20;;;6.80;99.90;;;;;;4870180;29;20097;-93
2022/03/03 10:37:46;;;;;;;110.70;52.00;;;6.80;99.90;;;;;;4867614;29;20387;-91
2022/03/03 10:40:15;;;;;;;117.88;52.35;;;6.80;99.90;;;;;;4873440;29;20035;-91
2022/03/03 10:42:50;;;;;;;111.70;53.03;;;6.80;99.90;;;;;;4871713;29;20499;-90
2022/03/03 10:45:19;;;;;;;122.68;55.13;;;6.90;99.90;;;;;;4873000;29;20066;-90
2022/03/03 10:48:04;;;;;;;111.60;52.90;;;6.90;99.90;;;;;;4869210;29;20076;-91
2022/03/03 10:50:46;;;;;;;104.88;50.67;;;6.90;99.90;;;;;;4867331;29;20116;-91
2022/03/03 10:53:15;;;;;;;113.05;54.08;;;6.90;99.90;;;;;;4862299;29;20617;-91
2022/03/03 10:56:05;;;;;;;116.65;55.50;;;7.00;99.90;;;;;;4862548;29;20400;-90
2022/03/03 10:58:43;;;;;;;126.17;57.10;;;7.00;99.90;;;;;;4867210;29;20033;-91
2022/03/03 11:01:09;;;;;;;120.35;55.75;;;7.00;99.90;;;;;;4865299;29;20286;-93
2022/03/03 11:03:36;;;;;;;112.78;52.80;;;7.00;99.90;;;;;;4864989;29;20093;-92
2022/03/03 11:06:09;;;;;;;118.03;53.08;;;7.00;99.90;;;;;;4880465;29;20036;-92
2022/03/03 11:08:35;;;;;;;120.90;53.80;;;7.10;99.90;;;;;;4881305;29;20033;-90
2022/03/03 11:11:04;;;;;;;116.85;53.70;;;7.10;99.90;;;;;;4874669;29;20064;-91
2022/03/03 11:13:30;;;;;;;114.38;55.53;;;7.10;99.90;;;;;;4869308;29;20130;-91
2022/03/03 11:15:56;;;;;;;111.28;54.15;;;7.10;99.90;;;;;;4869611;29;20060;-89
2022/03/03 11:18:24;;;;;;;111.38;52.95;;;7.20;99.90;;;;;;4867724;29;20041;-92
2022/03/03 11:20:49;;;;;;;124.60;55.25;;;7.10;99.90;;;;;;4861712;29;20033;-90
2022/03/03 11:23:15;;;;;;;116.18;54.28;;;7.20;99.90;;;;;;4863203;29;20022;-91
2022/03/03 11:25:41;;;;;;;110.00;54.10;;;7.10;99.90;;;;;;4876427;29;20041;-92
2022/03/03 11:28:15;;;;;;;114.43;54.00;;;7.10;99.90;;;;;;4876724;29;20025;-92
2022/03/03 11:30:45;;;;;;;114.47;53.72;;;7.10;99.90;;;;;;4867196;29;20282;-91
2022/03/03 11:33:19;;;;;;;109.57;52.83;;;7.10;99.90;;;;;;4861054;29;20038;-91
2022/03/03 11:35:59;;;;;;;111.40;53.83;;;7.10;99.90;;;;;;4861700;29;20036;-91
2022/03/03 11:38:47;;;;;;;116.47;53.55;;;7.10;99.90;;;;;;4871943;29;20029;-92
2022/03/03 11:41:13;;;;;;;114.80;51.47;;;7.10;99.90;;;;;;4862875;29;20041;-92
2022/03/03 11:44:08;;;;;;;113.72;53.53;;;7.10;99.90;;;;;;4868004;29;20029;-91
2022/03/03 11:46:48;;;;;;;125.10;55.80;;;7.10;99.90;;;;;;4871768;29;20090;-91
2022/03/03 11:49:25;;;;;;;114.77;54.57;;;7.20;99.90;;;;;;4874920;29;20062;-92
2022/03/03 11:51:55;;;;;;;111.40;51.60;;;7.20;99.90;;;;;;4873435;29;20298;-90
2022/03/03 11:54:27;;;;;;;123.70;55.13;;;7.20;99.90;;;;;;4878435;29;20132;-92
2022/03/03 11:57:08;;;;;;;118.78;55.65;;;7.20;99.90;;;;;;4883192;29;20038;-92
2022/03/03 11:59:36;;;;;;;110.88;52.22;;;7.30;99.90;;;;;;4877425;29;20029;-91
2022/03/03 12:02:02;;;;;;;114.13;53.17;;;7.30;99.90;;;;;;4879533;29;20475;-92
2022/03/03 12:04:28;;;;;;;123.10;54.05;;;7.30;99.90;;;;;;4876397;29;20034;-88
2022/03/03 12:06:55;;;;;;;117.90;54.42;;;7.30;99.90;;;;;;4868147;29;20033;-91
2022/03/03 12:09:26;;;;;;;125.85;57.10;;;7.30;99.90;;;;;;4871786;29;20034;-91
2022/03/03 12:12:11;;;;;;;118.80;56.00;;;7.30;99.90;;;;;;4872433;29;20045;-91
2022/03/03 12:14:59;;;;;;;111.80;51.80;;;7.40;99.90;;;;;;4868117;29;20115;-89
2022/03/03 12:17:44;;;;;;;111.63;53.42;;;7.30;99.90;;;;;;4866510;29;20511;-91
2022/03/03 12:20:35;;;;;;;115.43;53.92;;;7.30;99.90;;;;;;4869096;29;20034;-90
2022/03/03 12:23:08;;;;;;;112.63;52.20;;;7.20;99.90;;;;;;4871571;29;20378;-90
2022/03/03 12:25:54;;;;;;;108.55;52.50;;;7.20;99.90;;;;;;4872046;29;20033;-88
2022/03/03 12:28:35;;;;;;;117.85;54.95;;;7.20;99.90;;;;;;4868119;29;20045;-88
2022/03/03 12:31:03;;;;;;;119.05;56.00;;;7.20;99.90;;;;;;4868175;29;20396;-91
2022/03/03 12:33:30;;;;;;;113.18;51.78;;;7.20;99.90;;;;;;4870480;29;20028;-91
2022/03/03 12:36:05;;;;;;;107.20;51.70;;;7.20;99.90;;;;;;4870767;29;20128;-91
2022/03/03 12:38:33;;;;;;;117.30;54.17;;;7.10;99.90;;;;;;4872741;29;20112;-91
2022/03/03 12:40:59;;;;;;;114.60;53.45;;;7.10;99.90;;;;;;4867592;29;20411;-91
2022/03/03 12:43:25;;;;;;;111.35;55.25;;;7.10;99.90;;;;;;4869079;29;20032;-89
2022/03/03 12:45:52;;;;;;;117.40;57.22;;;7.10;99.90;;;;;;4870897;29;20592;-90
2022/03/03 12:48:33;;;;;;;119.47;55.95;;;7.10;99.90;;;;;;4872013;29;20473;-90
2022/03/03 12:51:01;;;;;;;111.65;54.40;;;7.10;99.90;;;;;;4868940;29;20085;-91